Sanar-3 — UBPI2 — position and weather

sailwx.info

Track history (hours):
 
Tides and Currents Weather Stations Pressure Air Temp Water Temp Dewpoint Dewpoint Depression Visibility Wind Speed Wind Dir Waves Ship Positions

Sanar-3

Last reported at 2018-Aug-13 08:55 UTC. Time now 2018-Aug-14 19:26 UTC.
Position N 45°22' E 036°40'.

Length 140 m; draft 2.9 m.

Type: Ship. MMSI: 273358760.

Date/timePositionNaut miles runAvg speedWind from/ knotsBaromVisibWave heightAir tempDewpointWater temp
2018-Aug-13 08:55N 45°22' E 036°40'3 8.4
2018-Aug-13 08:30N 45°20' E 036°36'6 7.7
2018-Aug-13 07:45N 45°17' E 036°29'1 5.4
2018-Aug-13 07:30N 45°16' E 036°29'3 5.4
2018-Aug-13 06:58N 45°13' E 036°29'  
2018-Aug-09 11:25N 45°19' E 036°32'4 9.0
2018-Aug-09 11:00N 45°20' E 036°36'4 7.6
2018-Aug-09 10:30N 45°23' E 036°40'4 7.1
2018-Aug-09 09:59N 45°27' E 036°40'  
2018-Aug-05 10:20N 45°25' E 036°41'3 8.2
2018-Aug-05 10:00N 45°22' E 036°40'4 8.1
2018-Aug-05 09:30N 45°20' E 036°36'4 8.4
2018-Aug-05 09:00N 45°18' E 036°30'5 7.5
2018-Aug-05 08:24N 45°14' E 036°28'9 8.0
2018-Aug-05 07:13N 45°05' E 036°31'2 6.9
2018-Aug-05 06:59N 45°03' E 036°31'16 0.6
2018-Aug-04 02:28N 45°19' E 036°33'3 6.9
2018-Aug-04 02:01N 45°21' E 036°37'3 6.5
2018-Aug-04 01:30N 45°23' E 036°40'  
Track history (hours):
 
Tides and Currents Weather Stations Pressure Air Temp Water Temp Dewpoint Dewpoint Depression Visibility Wind Speed Wind Dir Waves Ship Positions

Sanar-3

Last reported at 2018-Aug-13 08:55 UTC. Time now 2018-Aug-14 19:26 UTC.
Position N 45°22' E 036°40'.

Length 140 m; draft 2.9 m.

Type: Ship. MMSI: 273358760.

Date/timePositionNaut miles runAvg speedWind from/ knotsBaromVisibWave heightAir tempDewpointWater temp
2018-Aug-13 08:55N 45°22' E 036°40'3 8.4
2018-Aug-13 08:30N 45°20' E 036°36'6 7.7
2018-Aug-13 07:45N 45°17' E 036°29'1 5.4
2018-Aug-13 07:30N 45°16' E 036°29'3 5.4
2018-Aug-13 06:58N 45°13' E 036°29'  
2018-Aug-09 11:25N 45°19' E 036°32'4 9.0
2018-Aug-09 11:00N 45°20' E 036°36'4 7.6
2018-Aug-09 10:30N 45°23' E 036°40'4 7.1
2018-Aug-09 09:59N 45°27' E 036°40'  
2018-Aug-05 10:20N 45°25' E 036°41'3 8.2
2018-Aug-05 10:00N 45°22' E 036°40'4 8.1
2018-Aug-05 09:30N 45°20' E 036°36'4 8.4
2018-Aug-05 09:00N 45°18' E 036°30'5 7.5
2018-Aug-05 08:24N 45°14' E 036°28'9 8.0
2018-Aug-05 07:13N 45°05' E 036°31'2 6.9
2018-Aug-05 06:59N 45°03' E 036°31'16 0.6
2018-Aug-04 02:28N 45°19' E 036°33'3 6.9
2018-Aug-04 02:01N 45°21' E 036°37'3 6.5
2018-Aug-04 01:30N 45°23' E 036°40'  

Dump ship's entire track history